Aviation Digital Data Service (ADDS)

Output produced by METARs form (0301 UTC 05 June 2020)
found at http://www.aviationweather.gov/metar/data/
 
METAR text: ETNN 050220Z 24006KT 9999 FEW025 BKN038 09/07 Q0998 BLU
Conditions at: ETNN (NOERVENICH (GAF), DE) observed 0220 UTC 05 June 2020
Temperature: 9.0°C (48°F)
Dewpoint: 7.0°C (45°F) [RH = 87%]
Pressure (altimeter): 29.47 inches Hg (998.0 mb)
Winds: from the WSW (240 degrees) at 7 MPH (6 knots; 3.1 m/s)
Visibility: 6 or more miles (10+ km)
Ceiling: 3800 feet AGL
Clouds: few clouds at 2500 feet AGL
broken clouds at 3800 feet AGL
Weather: no significant weather observed at this time

METAR text: ETNN 050120Z 24005KT 9999 FEW060 BKN170 09/07 Q0998 BLU
Conditions at: ETNN (NOERVENICH (GAF), DE) observed 0120 UTC 05 June 2020
Temperature: 9.0°C (48°F)
Dewpoint: 7.0°C (45°F) [RH = 87%]
Pressure (altimeter): 29.47 inches Hg (998.0 mb)
Winds: from the WSW (240 degrees) at 6 MPH (5 knots; 2.6 m/s)
Visibility: 6 or more miles (10+ km)
Ceiling: 17000 feet AGL
Clouds: few clouds at 6000 feet AGL
broken clouds at 17000 feet AGL
Weather: no significant weather observed at this time

METAR text: ETNN 050020Z 27008KT 9999 FEW060 SCT110 BKN170 09/08 Q0998 BLU
Conditions at: ETNN (NOERVENICH (GAF), DE) observed 0020 UTC 05 June 2020
Temperature: 9.0°C (48°F)
Dewpoint: 8.0°C (46°F) [RH = 93%]
Pressure (altimeter): 29.47 inches Hg (998.0 mb)
Winds: from the W (270 degrees) at 9 MPH (8 knots; 4.1 m/s)
Visibility: 6 or more miles (10+ km)
Ceiling: 17000 feet AGL
Clouds: few clouds at 6000 feet AGL
scattered clouds at 11000 feet AGL
broken clouds at 17000 feet AGL
Weather: no significant weather observed at this time

METAR text: ETNN 042320Z 28006KT 9999 FEW020 BKN040 10/09 Q0998 BLU
Conditions at: ETNN (NOERVENICH (GAF), DE) observed 2320 UTC 04 June 2020
Temperature: 10.0°C (50°F)
Dewpoint: 9.0°C (48°F) [RH = 93%]
Pressure (altimeter): 29.47 inches Hg (998.0 mb)
Winds: from the W (280 degrees) at 7 MPH (6 knots; 3.1 m/s)
Visibility: 6 or more miles (10+ km)
Ceiling: 4000 feet AGL
Clouds: few clouds at 2000 feet AGL
broken clouds at 4000 feet AGL
Weather: no significant weather observed at this time

METAR text: ETNN 042220Z 30009KT 9999 -SHRA FEW020 BKN030TCU 10/08 Q0998 BLU
Conditions at: ETNN (NOERVENICH (GAF), DE) observed 2220 UTC 04 June 2020
Temperature: 10.0°C (50°F)
Dewpoint: 8.0°C (46°F) [RH = 87%]
Pressure (altimeter): 29.47 inches Hg (998.0 mb)
Winds: from the WNW (300 degrees) at 10 MPH (9 knots; 4.6 m/s)
Visibility: 6 or more miles (10+ km)
Ceiling: 3000 feet AGL
Clouds: few clouds at 2000 feet AGL
broken clouds at 3000 feet AGL
Weather: -SHRA  (light rain showers)

METAR text: ETNN 042120Z 28011KT 9999 FEW012 BKN022 11/09 Q0998 WHT
Conditions at: ETNN (NOERVENICH (GAF), DE) observed 2120 UTC 04 June 2020
Temperature: 11.0°C (52°F)
Dewpoint: 9.0°C (48°F) [RH = 87%]
Pressure (altimeter): 29.47 inches Hg (998.0 mb)
Winds: from the W (280 degrees) at 13 MPH (11 knots; 5.7 m/s)
Visibility: 6 or more miles (10+ km)
Ceiling: 2200 feet AGL
Clouds: few clouds at 1200 feet AGL
broken clouds at 2200 feet AGL
Weather: no significant weather observed at this time

METAR text: ETNN 042020Z 29012KT 9999 FEW018 BKN060 11/09 Q0998 RERA BLU
Conditions at: ETNN (NOERVENICH (GAF), DE) observed 2020 UTC 04 June 2020
Temperature: 11.0°C (52°F)
Dewpoint: 9.0°C (48°F) [RH = 87%]
Pressure (altimeter): 29.47 inches Hg (998.0 mb)
Winds: from the WNW (290 degrees) at 14 MPH (12 knots; 6.2 m/s)
Visibility: 6 or more miles (10+ km)
Ceiling: 6000 feet AGL
Clouds: few clouds at 1800 feet AGL
broken clouds at 6000 feet AGL
Weather: no significant weather observed at this time

METAR text: ETNN 041920Z 26006KT 9999 FEW018 BKN050 BKN110 12/10 Q0997 BLU
Conditions at: ETNN (NOERVENICH (GAF), DE) observed 1920 UTC 04 June 2020
Temperature: 12.0°C (54°F)
Dewpoint: 10.0°C (50°F) [RH = 88%]
Pressure (altimeter): 29.44 inches Hg (997.0 mb)
Winds: from the W (260 degrees) at 7 MPH (6 knots; 3.1 m/s)
Visibility: 6 or more miles (10+ km)
Ceiling: 5000 feet AGL
Clouds: few clouds at 1800 feet AGL
broken clouds at 5000 feet AGL
broken clouds at 11000 feet AGL
Weather: no significant weather observed at this time

METAR text: ETNN 041820Z 28006KT 9999 FEW018 BKN090 12/10 Q0997 BLU
Conditions at: ETNN (NOERVENICH (GAF), DE) observed 1820 UTC 04 June 2020
Temperature: 12.0°C (54°F)
Dewpoint: 10.0°C (50°F) [RH = 88%]
Pressure (altimeter): 29.44 inches Hg (997.0 mb)
Winds: from the W (280 degrees) at 7 MPH (6 knots; 3.1 m/s)
Visibility: 6 or more miles (10+ km)
Ceiling: 9000 feet AGL
Clouds: few clouds at 1800 feet AGL
broken clouds at 9000 feet AGL
Weather: no significant weather observed at this time

METAR text: ETNN 041720Z 31009KT 9000 -RA SCT010 BKN050 12/11 Q0997 RERA BLU
Conditions at: ETNN (NOERVENICH (GAF), DE) observed 1720 UTC 04 June 2020
Temperature: 12.0°C (54°F)
Dewpoint: 11.0°C (52°F) [RH = 94%]
Pressure (altimeter): 29.44 inches Hg (997.0 mb)
Winds: from the NW (310 degrees) at 10 MPH (9 knots; 4.6 m/s)
Visibility: 6 miles ( 9 km)
Ceiling: 5000 feet AGL
Clouds: scattered clouds at 1000 feet AGL
broken clouds at 5000 feet AGL
Weather: -RA  (light rain)

METAR text: ETNN 041646Z 27009KT 6000 +RA BKN010 BKN060 13/12 Q0996 GRN
Conditions at: ETNN (NOERVENICH (GAF), DE) observed 1646 UTC 04 June 2020
Temperature: 13.0°C (55°F)
Dewpoint: 12.0°C (54°F) [RH = 94%]
Pressure (altimeter): 29.41 inches Hg (996.0 mb)
Winds: from the W (270 degrees) at 10 MPH (9 knots; 4.6 m/s)
Visibility: 4 miles ( 6 km)
Ceiling: 1000 feet AGL
Clouds: broken clouds at 1000 feet AGL
broken clouds at 6000 feet AGL
Weather: +RA  (heavy rain)

METAR text: ETNN 041620Z 28007KT 6000 RA SCT010 BKN060 13/12 Q0996 WHT
Conditions at: ETNN (NOERVENICH (GAF), DE) observed 1620 UTC 04 June 2020
Temperature: 13.0°C (55°F)
Dewpoint: 12.0°C (54°F) [RH = 94%]
Pressure (altimeter): 29.41 inches Hg (996.0 mb)
Winds: from the W (280 degrees) at 8 MPH (7 knots; 3.6 m/s)
Visibility: 4 miles ( 6 km)
Ceiling: 6000 feet AGL
Clouds: scattered clouds at 1000 feet AGL
broken clouds at 6000 feet AGL
Weather: RA  (moderate rain)

METAR text: ETNN 041543Z 29008KT 8000 RA FEW012 BKN020 13/11 Q0996 WHT
Conditions at: ETNN (NOERVENICH (GAF), DE) observed 1543 UTC 04 June 2020
Temperature: 13.0°C (55°F)
Dewpoint: 11.0°C (52°F) [RH = 88%]
Pressure (altimeter): 29.41 inches Hg (996.0 mb)
Winds: from the WNW (290 degrees) at 9 MPH (8 knots; 4.1 m/s)
Visibility: 5 miles ( 8 km)
Ceiling: 2000 feet AGL
Clouds: few clouds at 1200 feet AGL
broken clouds at 2000 feet AGL
Weather: RA  (moderate rain)

METAR text: ETNN 041520Z 30007KT 9000 SCT020 BKN060 13/11 Q0996 RERA BLU FCST CANCEL
Conditions at: ETNN (NOERVENICH (GAF), DE) observed 1520 UTC 04 June 2020
Temperature: 13.0°C (55°F)
Dewpoint: 11.0°C (52°F) [RH = 88%]
Pressure (altimeter): 29.41 inches Hg (996.0 mb)
Winds: from the WNW (300 degrees) at 8 MPH (7 knots; 3.6 m/s)
Visibility: 6 miles ( 9 km)
Ceiling: 6000 feet AGL
Clouds: scattered clouds at 2000 feet AGL
broken clouds at 6000 feet AGL
Weather: no significant weather observed at this time

METAR text: ETNN 041420Z 28012KT 9999 -RA SCT020 BKN035 12/10 Q0997 BLU BLU TEMPO GRN
Conditions at: ETNN (NOERVENICH (GAF), DE) observed 1420 UTC 04 June 2020
Temperature: 12.0°C (54°F)
Dewpoint: 10.0°C (50°F) [RH = 88%]
Pressure (altimeter): 29.44 inches Hg (997.0 mb)
Winds: from the W (280 degrees) at 14 MPH (12 knots; 6.2 m/s)
Visibility: 6 or more miles (10+ km)
Ceiling: 3500 feet AGL
Clouds: scattered clouds at 2000 feet AGL
broken clouds at 3500 feet AGL
Weather: -RA  (light rain)

METAR text: ETNN 041320Z 29010KT 7000 -RA SCT013 BKN018 13/11 Q0996 WHT WHT TEMPO GRN
Conditions at: ETNN (NOERVENICH (GAF), DE) observed 1320 UTC 04 June 2020
Temperature: 13.0°C (55°F)
Dewpoint: 11.0°C (52°F) [RH = 88%]
Pressure (altimeter): 29.41 inches Hg (996.0 mb)
Winds: from the WNW (290 degrees) at 12 MPH (10 knots; 5.1 m/s)
Visibility: 4 miles ( 7 km)
Ceiling: 1800 feet AGL
Clouds: scattered clouds at 1300 feet AGL
broken clouds at 1800 feet AGL
Weather: -RA  (light rain)

METAR text: ETNN 041220Z 28010KT 6000 -RA FEW008 BKN012 14/11 Q0996 GRN WHT TEMPO GRN
Conditions at: ETNN (NOERVENICH (GAF), DE) observed 1220 UTC 04 June 2020
Temperature: 14.0°C (57°F)
Dewpoint: 11.0°C (52°F) [RH = 82%]
Pressure (altimeter): 29.41 inches Hg (996.0 mb)
Winds: from the W (280 degrees) at 12 MPH (10 knots; 5.1 m/s)
Visibility: 4 miles ( 6 km)
Ceiling: 1200 feet AGL
Clouds: few clouds at 800 feet AGL
broken clouds at 1200 feet AGL
Weather: -RA  (light rain)

METAR text: ETNN 041120Z 28007KT 9000 FEW007 BKN013 14/12 Q0996 GRN WHT TEMPO GRN
Conditions at: ETNN (NOERVENICH (GAF), DE) observed 1120 UTC 04 June 2020
Temperature: 14.0°C (57°F)
Dewpoint: 12.0°C (54°F) [RH = 88%]
Pressure (altimeter): 29.41 inches Hg (996.0 mb)
Winds: from the W (280 degrees) at 8 MPH (7 knots; 3.6 m/s)
Visibility: 6 miles ( 9 km)
Ceiling: 1300 feet AGL
Clouds: few clouds at 700 feet AGL
broken clouds at 1300 feet AGL
Weather: no significant weather observed at this time

METAR text: ETNN 041020Z 29009KT 9000 FEW008 BKN010 14/11 Q0997 GRN WHT TEMPO GRN
Conditions at: ETNN (NOERVENICH (GAF), DE) observed 1020 UTC 04 June 2020
Temperature: 14.0°C (57°F)
Dewpoint: 11.0°C (52°F) [RH = 82%]
Pressure (altimeter): 29.44 inches Hg (997.0 mb)
Winds: from the WNW (290 degrees) at 10 MPH (9 knots; 4.6 m/s)
Visibility: 6 miles ( 9 km)
Ceiling: 1000 feet AGL
Clouds: few clouds at 800 feet AGL
broken clouds at 1000 feet AGL
Weather: no significant weather observed at this time

METAR text: ETNN 040944Z 29007KT 9000 FEW008 BKN010 14/12 Q0997 GRN BLU TEMPO GRN
Conditions at: ETNN (NOERVENICH (GAF), DE) observed 0944 UTC 04 June 2020
Temperature: 14.0°C (57°F)
Dewpoint: 12.0°C (54°F) [RH = 88%]
Pressure (altimeter): 29.44 inches Hg (997.0 mb)
Winds: from the WNW (290 degrees) at 8 MPH (7 knots; 3.6 m/s)
Visibility: 6 miles ( 9 km)
Ceiling: 1000 feet AGL
Clouds: few clouds at 800 feet AGL
broken clouds at 1000 feet AGL
Weather: no significant weather observed at this time

METAR text: ETNN 040920Z 30007KT 9999 SCT010 BKN015 15/12 Q0997 WHT BLU TEMPO GRN
Conditions at: ETNN (NOERVENICH (GAF), DE) observed 0920 UTC 04 June 2020
Temperature: 15.0°C (59°F)
Dewpoint: 12.0°C (54°F) [RH = 82%]
Pressure (altimeter): 29.44 inches Hg (997.0 mb)
Winds: from the WNW (300 degrees) at 8 MPH (7 knots; 3.6 m/s)
Visibility: 6 or more miles (10+ km)
Ceiling: 1500 feet AGL
Clouds: scattered clouds at 1000 feet AGL
broken clouds at 1500 feet AGL
Weather: no significant weather observed at this time

METAR text: ETNN 040820Z 29008KT 9999 SCT010 BKN020 15/12 Q0997 WHT BLU TEMPO GRN
Conditions at: ETNN (NOERVENICH (GAF), DE) observed 0820 UTC 04 June 2020
Temperature: 15.0°C (59°F)
Dewpoint: 12.0°C (54°F) [RH = 82%]
Pressure (altimeter): 29.44 inches Hg (997.0 mb)
Winds: from the WNW (290 degrees) at 9 MPH (8 knots; 4.1 m/s)
Visibility: 6 or more miles (10+ km)
Ceiling: 2000 feet AGL
Clouds: scattered clouds at 1000 feet AGL
broken clouds at 2000 feet AGL
Weather: no significant weather observed at this time

METAR text: ETNN 040720Z 29004KT 8000 FEW007 BKN010 14/13 Q0997 GRN WHT TEMPO GRN
Conditions at: ETNN (NOERVENICH (GAF), DE) observed 0720 UTC 04 June 2020
Temperature: 14.0°C (57°F)
Dewpoint: 13.0°C (55°F) [RH = 94%]
Pressure (altimeter): 29.44 inches Hg (997.0 mb)
Winds: from the WNW (290 degrees) at 5 MPH (4 knots; 2.1 m/s)
Visibility: 5 miles ( 8 km)
Ceiling: 1000 feet AGL
Clouds: few clouds at 700 feet AGL
broken clouds at 1000 feet AGL
Weather: no significant weather observed at this time

METAR text: ETNN 040620Z 30005KT 6000 -RA FEW005 BKN008 14/13 Q0997 GRN WHT TEMPO GRN
Conditions at: ETNN (NOERVENICH (GAF), DE) observed 0620 UTC 04 June 2020
Temperature: 14.0°C (57°F)
Dewpoint: 13.0°C (55°F) [RH = 94%]
Pressure (altimeter): 29.44 inches Hg (997.0 mb)
Winds: from the WNW (300 degrees) at 6 MPH (5 knots; 2.6 m/s)
Visibility: 4 miles ( 6 km)
Ceiling: 800 feet AGL
Clouds: few clouds at 500 feet AGL
broken clouds at 800 feet AGL
Weather: -RA  (light rain)

METAR text: ETNN 040520Z 30005KT 7000 BKN009 BKN060 14/13 Q0997 GRN WHT TEMPO GRN
Conditions at: ETNN (NOERVENICH (GAF), DE) observed 0520 UTC 04 June 2020
Temperature: 14.0°C (57°F)
Dewpoint: 13.0°C (55°F) [RH = 94%]
Pressure (altimeter): 29.44 inches Hg (997.0 mb)
Winds: from the WNW (300 degrees) at 6 MPH (5 knots; 2.6 m/s)
Visibility: 4 miles ( 7 km)
Ceiling: 900 feet AGL
Clouds: broken clouds at 900 feet AGL
broken clouds at 6000 feet AGL
Weather: no significant weather observed at this time

METAR text: ETNN 040420Z 28004KT 9000 -RA FEW015 BKN060 14/12 Q0997 BLU BLU BECMG WHT
Conditions at: ETNN (NOERVENICH (GAF), DE) observed 0420 UTC 04 June 2020
Temperature: 14.0°C (57°F)
Dewpoint: 12.0°C (54°F) [RH = 88%]
Pressure (altimeter): 29.44 inches Hg (997.0 mb)
Winds: from the W (280 degrees) at 5 MPH (4 knots; 2.1 m/s)
Visibility: 6 miles ( 9 km)
Ceiling: 6000 feet AGL
Clouds: few clouds at 1500 feet AGL
broken clouds at 6000 feet AGL
Weather: -RA  (light rain)

METAR text: ETNN 040320Z 28003KT 9999 -RA FEW040 BKN060 14/11 Q0998 BLU
Conditions at: ETNN (NOERVENICH (GAF), DE) observed 0320 UTC 04 June 2020
Temperature: 14.0°C (57°F)
Dewpoint: 11.0°C (52°F) [RH = 82%]
Pressure (altimeter): 29.47 inches Hg (998.0 mb)
Winds: from the W (280 degrees) at 3 MPH (3 knots; 1.5 m/s)
Visibility: 6 or more miles (10+ km)
Ceiling: 6000 feet AGL
Clouds: few clouds at 4000 feet AGL
broken clouds at 6000 feet AGL
Weather: -RA  (light rain)

METAR text: ETNN 040220Z 30002KT 9999 SCT060 BKN080 15/09 Q0998 BLU
Conditions at: ETNN (NOERVENICH (GAF), DE) observed 0220 UTC 04 June 2020
Temperature: 15.0°C (59°F)
Dewpoint: 9.0°C (48°F) [RH = 67%]
Pressure (altimeter): 29.47 inches Hg (998.0 mb)
Winds: from the WNW (300 degrees) at 2 MPH (2 knots; 1.0 m/s)
Visibility: 6 or more miles (10+ km)
Ceiling: 8000 feet AGL
Clouds: scattered clouds at 6000 feet AGL
broken clouds at 8000 feet AGL
Weather: no significant weather observed at this time

METAR text: ETNN 040120Z 24002KT 9999 SCT060 BKN080 16/09 Q0999 BLU
Conditions at: ETNN (NOERVENICH (GAF), DE) observed 0120 UTC 04 June 2020
Temperature: 16.0°C (61°F)
Dewpoint: 9.0°C (48°F) [RH = 63%]
Pressure (altimeter): 29.50 inches Hg (999.0 mb)
Winds: from the WSW (240 degrees) at 2 MPH (2 knots; 1.0 m/s)
Visibility: 6 or more miles (10+ km)
Ceiling: 8000 feet AGL
Clouds: scattered clouds at 6000 feet AGL
broken clouds at 8000 feet AGL
Weather: no significant weather observed at this time

METAR text: ETNN 040020Z 20003KT 9999 BKN060 BKN130 16/09 Q1000 BLU
Conditions at: ETNN (NOERVENICH (GAF), DE) observed 0020 UTC 04 June 2020
Temperature: 16.0°C (61°F)
Dewpoint: 9.0°C (48°F) [RH = 63%]
Pressure (altimeter): 29.53 inches Hg (1000.0 mb)
Winds: from the SSW (200 degrees) at 3 MPH (3 knots; 1.5 m/s)
Visibility: 6 or more miles (10+ km)
Ceiling: 6000 feet AGL
Clouds: broken clouds at 6000 feet AGL
broken clouds at 13000 feet AGL
Weather: no significant weather observed at this time

METAR text: ETNN 032320Z 22006KT 9999 BKN050 BKN100 17/09 Q1000 BLU
Conditions at: ETNN (NOERVENICH (GAF), DE) observed 2320 UTC 03 June 2020
Temperature: 17.0°C (63°F)
Dewpoint: 9.0°C (48°F) [RH = 59%]
Pressure (altimeter): 29.53 inches Hg (1000.0 mb)
Winds: from the SW (220 degrees) at 7 MPH (6 knots; 3.1 m/s)
Visibility: 6 or more miles (10+ km)
Ceiling: 5000 feet AGL
Clouds: broken clouds at 5000 feet AGL
broken clouds at 10000 feet AGL
Weather: no significant weather observed at this time

METAR text: ETNN 032220Z 29005KT 9999 FEW050 BKN070 BKN180 18/08 Q1000 BLU
Conditions at: ETNN (NOERVENICH (GAF), DE) observed 2220 UTC 03 June 2020
Temperature: 18.0°C (64°F)
Dewpoint: 8.0°C (46°F) [RH = 52%]
Pressure (altimeter): 29.53 inches Hg (1000.0 mb)
Winds: from the WNW (290 degrees) at 6 MPH (5 knots; 2.6 m/s)
Visibility: 6 or more miles (10+ km)
Ceiling: 7000 feet AGL
Clouds: few clouds at 5000 feet AGL
broken clouds at 7000 feet AGL
broken clouds at 18000 feet AGL
Weather: no significant weather observed at this time

METAR text: ETNN 032120Z 30005KT 9999 SCT090 BKN250 18/08 Q1000 BLU+
Conditions at: ETNN (NOERVENICH (GAF), DE) observed 2120 UTC 03 June 2020
Temperature: 18.0°C (64°F)
Dewpoint: 8.0°C (46°F) [RH = 52%]
Pressure (altimeter): 29.53 inches Hg (1000.0 mb)
Winds: from the WNW (300 degrees) at 6 MPH (5 knots; 2.6 m/s)
Visibility: 6 or more miles (10+ km)
Ceiling: 25000 feet AGL
Clouds: scattered clouds at 9000 feet AGL
broken clouds at 25000 feet AGL
Weather: no significant weather observed at this time

METAR text: ETNN 032020Z 30004KT 9999 FEW090 BKN250 17/08 Q1001 BLU+
Conditions at: ETNN (NOERVENICH (GAF), DE) observed 2020 UTC 03 June 2020
Temperature: 17.0°C (63°F)
Dewpoint: 8.0°C (46°F) [RH = 55%]
Pressure (altimeter): 29.56 inches Hg (1001.0 mb)
Winds: from the WNW (300 degrees) at 5 MPH (4 knots; 2.1 m/s)
Visibility: 6 or more miles (10+ km)
Ceiling: 25000 feet AGL
Clouds: few clouds at 9000 feet AGL
broken clouds at 25000 feet AGL
Weather: no significant weather observed at this time

METAR text: ETNN 031920Z 31004KT 9999 FEW090 BKN280 21/08 Q1001 BLU+
Conditions at: ETNN (NOERVENICH (GAF), DE) observed 1920 UTC 03 June 2020
Temperature: 21.0°C (70°F)
Dewpoint: 8.0°C (46°F) [RH = 43%]
Pressure (altimeter): 29.56 inches Hg (1001.0 mb)
Winds: from the NW (310 degrees) at 5 MPH (4 knots; 2.1 m/s)
Visibility: 6 or more miles (10+ km)
Ceiling: 28000 feet AGL
Clouds: few clouds at 9000 feet AGL
broken clouds at 28000 feet AGL
Weather: no significant weather observed at this time

METAR text: ETNN 031820Z 30006KT 9999 FEW090 BKN200 23/08 Q1001 BLU+
Conditions at: ETNN (NOERVENICH (GAF), DE) observed 1820 UTC 03 June 2020
Temperature: 23.0°C (73°F)
Dewpoint: 8.0°C (46°F) [RH = 38%]
Pressure (altimeter): 29.56 inches Hg (1001.0 mb)
Winds: from the WNW (300 degrees) at 7 MPH (6 knots; 3.1 m/s)
Visibility: 6 or more miles (10+ km)
Ceiling: 20000 feet AGL
Clouds: few clouds at 9000 feet AGL
broken clouds at 20000 feet AGL
Weather: no significant weather observed at this time

METAR text: ETNN 031720Z 29006KT 9999 FEW050 BKN260 23/09 Q1001 BLU+
Conditions at: ETNN (NOERVENICH (GAF), DE) observed 1720 UTC 03 June 2020
Temperature: 23.0°C (73°F)
Dewpoint: 9.0°C (48°F) [RH = 41%]
Pressure (altimeter): 29.56 inches Hg (1001.0 mb)
Winds: from the WNW (290 degrees) at 7 MPH (6 knots; 3.1 m/s)
Visibility: 6 or more miles (10+ km)
Ceiling: 26000 feet AGL
Clouds: few clouds at 5000 feet AGL
broken clouds at 26000 feet AGL
Weather: no significant weather observed at this time

METAR text: ETNN 031620Z 30004KT 9999 FEW050 BKN280 24/08 Q1001 BLU+
Conditions at: ETNN (NOERVENICH (GAF), DE) observed 1620 UTC 03 June 2020
Temperature: 24.0°C (75°F)
Dewpoint: 8.0°C (46°F) [RH = 36%]
Pressure (altimeter): 29.56 inches Hg (1001.0 mb)
Winds: from the WNW (300 degrees) at 5 MPH (4 knots; 2.1 m/s)
Visibility: 6 or more miles (10+ km)
Ceiling: 28000 feet AGL
Clouds: few clouds at 5000 feet AGL
broken clouds at 28000 feet AGL
Weather: no significant weather observed at this time

METAR text: ETNN 031520Z 27006KT 9999 FEW050 SCT140 BKN320 23/08 Q1002 BLU+
Conditions at: ETNN (NOERVENICH (GAF), DE) observed 1520 UTC 03 June 2020
Temperature: 23.0°C (73°F)
Dewpoint: 8.0°C (46°F) [RH = 38%]
Pressure (altimeter): 29.59 inches Hg (1002.0 mb)
Winds: from the W (270 degrees) at 7 MPH (6 knots; 3.1 m/s)
Visibility: 6 or more miles (10+ km)
Ceiling: 32000 feet AGL
Clouds: few clouds at 5000 feet AGL
scattered clouds at 14000 feet AGL
broken clouds at 32000 feet AGL
Weather: no significant weather observed at this time